Time;durP1;ratioP1;P1;durP2;ratioP2;P2;SDS_P1;SDS_P2;PMS_P1;PMS_P2;Temp;Humidity;BMP_temperature;BMP_pressure;BME280_temperature;BME280_humidity;BME280_pressure;Samples;Min_cycle;Max_cycle;Signal;HPM_P1;HPM_P2
2022/07/19 00:00:09;;;;;;;6.68;4.90;;;;;;;21.20;46.61;101277.53;668175;29;1859;-85
2022/07/19 00:00:31;;;;;;;6.20;4.90;;;;;;;21.20;46.61;101273.13;668960;29;1705;-86
2022/07/19 00:00:52;;;;;;;6.25;4.70;;;;;;;21.15;46.60;101268.75;662986;29;1852;-86
2022/07/19 00:01:12;;;;;;;6.60;4.57;;;;;;;21.20;46.69;101280.19;667052;29;1681;-86
2022/07/19 00:01:33;;;;;;;8.48;4.78;;;;;;;21.16;46.62;101270.53;669339;29;1493;-86
2022/07/19 00:01:53;;;;;;;9.00;4.97;;;;;;;21.12;46.60;101266.13;666565;29;1871;-86
2022/07/19 00:02:14;;;;;;;6.80;4.77;;;;;;;21.18;46.80;101279.34;663982;29;1812;-86
2022/07/19 00:02:36;;;;;;;6.07;4.68;;;;;;;21.20;46.79;101277.53;661727;29;1175;-86
2022/07/19 00:02:57;;;;;;;7.55;4.70;;;;;;;21.11;46.65;101267.91;661755;29;1230;-86
2022/07/19 00:03:18;;;;;;;8.10;5.18;;;;;;;21.06;46.77;101257.34;668258;29;1694;-86
2022/07/19 00:03:38;;;;;;;8.10;5.23;;;;;;;21.19;46.66;101278.44;667456;29;1249;-85
2022/07/19 00:03:59;;;;;;;8.43;5.20;;;;;;;21.10;46.96;101261.72;668948;29;1739;-85
2022/07/19 00:04:20;;;;;;;8.88;5.00;;;;;;;21.15;46.80;101274.06;671239;29;1462;-86
2022/07/19 00:04:40;;;;;;;8.85;4.97;;;;;;;21.06;46.68;101260.00;671860;29;1288;-86
2022/07/19 00:05:02;;;;;;;6.30;4.77;;;;;;;21.10;46.96;101267.00;668780;29;1816;-86
2022/07/19 00:05:22;;;;;;;5.75;4.60;;;;;;;21.05;46.89;101254.69;671489;29;1632;-86
2022/07/19 00:05:44;;;;;;;5.00;4.50;;;;;;;21.06;47.08;101264.41;666219;29;1471;-86
2022/07/19 00:06:04;;;;;;;8.05;4.70;;;;;;;21.08;47.19;101267.91;661158;29;1759;-85
2022/07/19 00:06:25;;;;;;;8.40;4.87;;;;;;;21.14;46.93;101274.97;667745;29;1587;-86
2022/07/19 00:06:49;;;;;;;14.85;5.30;;;;;;;21.10;47.11;101269.66;669465;29;1589;-86
2022/07/19 00:07:09;;;;;;;13.68;5.28;;;;;;;21.11;47.19;101273.22;662507;29;1669;-86
2022/07/19 00:07:30;;;;;;;7.93;4.70;;;;;;;21.12;47.29;101272.31;666473;29;1744;-86
2022/07/19 00:07:51;;;;;;;8.25;4.60;;;;;;;21.12;47.29;101271.44;671040;29;1257;-85
2022/07/19 00:08:12;;;;;;;6.57;4.63;;;;;;;21.13;47.27;101273.22;668510;29;1750;-86
2022/07/19 00:08:32;;;;;;;6.55;4.63;;;;;;;21.08;47.26;101263.50;669427;29;1509;-86
2022/07/19 00:08:53;;;;;;;7.87;4.90;;;;;;;21.17;47.04;101277.59;664136;29;1472;-86
2022/07/19 00:09:14;;;;;;;8.70;4.70;;;;;;;21.09;47.41;101259.94;665409;29;1858;-86
2022/07/19 00:09:34;;;;;;;10.27;4.68;;;;;;;21.10;47.12;101261.72;667034;29;1242;-86
2022/07/19 00:09:55;;;;;;;8.70;4.50;;;;;;;21.11;47.25;101259.94;666543;29;1242;-86
2022/07/19 00:10:17;;;;;;;8.10;4.57;;;;;;;21.14;47.17;101267.00;663294;29;1646;-86
2022/07/19 00:10:38;;;;;;;5.63;4.40;;;;;;;21.05;47.25;101252.94;667246;29;1262;-86
2022/07/19 00:10:59;;;;;;;6.10;4.50;;;;;;;21.13;47.05;101271.41;668641;29;1969;-85
2022/07/19 00:11:19;;;;;;;7.50;4.63;;;;;;;21.08;47.04;101265.25;665568;29;1752;-85
2022/07/19 00:11:40;;;;;;;9.55;4.60;;;;;;;21.09;47.24;101265.25;664593;29;1223;-85
2022/07/19 00:12:01;;;;;;;8.60;4.40;;;;;;;21.01;47.25;101253.81;667058;29;1721;-86
2022/07/19 00:12:22;;;;;;;12.77;4.80;;;;;;;21.06;47.14;101262.63;666002;29;1626;-85
2022/07/19 00:12:46;;;;;;;12.75;5.20;;;;;;;21.07;47.31;101272.34;668594;29;1444;-86
2022/07/19 00:13:06;;;;;;;12.27;5.25;;;;;;;21.03;47.42;101264.44;664728;29;1673;-86
2022/07/19 00:13:27;;;;;;;7.47;4.80;;;;;;;20.96;47.16;101253.88;661510;29;1759;-86
2022/07/19 00:13:48;;;;;;;6.10;4.53;;;;;;;20.98;47.24;101260.94;665207;29;1313;-86
2022/07/19 00:14:09;;;;;;;6.88;4.60;;;;;;;20.98;47.13;101264.47;667251;29;1753;-85
2022/07/19 00:14:29;;;;;;;7.18;4.82;;;;;;;20.95;47.38;101256.53;670553;29;1223;-86
2022/07/19 00:14:50;;;;;;;13.17;5.33;;;;;;;20.96;47.44;101263.59;664251;29;1170;-85
2022/07/19 00:15:13;;;;;;;11.63;5.00;;;;;;;20.90;47.49;101261.88;666292;29;1704;-86
2022/07/19 00:15:52;;;;;;;11.57;4.90;;;;;;;20.90;47.34;101263.66;670516;29;1235;-85
2022/07/19 00:16:14;;;;;;;7.05;4.70;;;;;;;20.89;47.50;101262.75;666104;29;1664;-85
2022/07/19 00:16:35;;;;;;;7.97;4.68;;;;;;;20.90;47.64;101261.00;671888;29;1292;-86
2022/07/19 00:16:57;;;;;;;6.75;4.63;;;;;;;20.85;47.62;101257.50;664096;29;1599;-86
2022/07/19 00:17:18;;;;;;;9.13;4.68;;;;;;;20.82;47.79;101256.63;665665;29;1828;-86
2022/07/19 00:17:44;;;;;;;10.00;5.00;;;;;;;20.84;47.58;101261.03;666664;29;1135;-85
2022/07/19 00:18:04;;;;;;;9.20;5.13;;;;;;;20.89;47.58;101269.84;669330;29;1704;-86
2022/07/19 00:18:25;;;;;;;7.43;5.10;;;;;;;20.86;47.71;101262.78;666313;29;1736;-86
2022/07/19 00:18:46;;;;;;;6.72;4.80;;;;;;;20.78;47.90;101251.38;670423;29;1255;-86
2022/07/19 00:19:07;;;;;;;5.40;4.40;;;;;;;20.84;47.82;101258.38;670420;29;1689;-85
2022/07/19 00:19:28;;;;;;;5.35;4.40;;;;;;;20.78;47.91;101249.56;666100;29;1915;-86
2022/07/19 00:19:49;;;;;;;6.20;4.20;;;;;;;20.76;47.82;101242.50;663605;29;1238;-85
2022/07/19 00:20:12;;;;;;;5.90;4.30;;;;;;;20.80;48.00;101254.88;665129;29;1760;-86
2022/07/19 00:20:33;;;;;;;5.78;4.30;;;;;;;20.81;47.98;101260.19;668453;29;1308;-86
2022/07/19 00:20:54;;;;;;;4.70;4.20;;;;;;;20.80;48.06;101253.13;661747;29;1133;-86
2022/07/19 00:21:15;;;;;;;6.22;4.43;;;;;;;20.82;48.09;101266.34;665678;29;1917;-86
2022/07/19 00:21:35;;;;;;;6.68;4.57;;;;;;;20.72;48.02;101248.75;671633;29;1172;-85
2022/07/19 00:21:56;;;;;;;6.63;4.70;;;;;;;20.79;48.09;101261.06;662305;29;1621;-86
2022/07/19 00:22:17;;;;;;;5.37;4.50;;;;;;;20.77;48.06;101260.22;665839;29;1740;-85
2022/07/19 00:22:38;;;;;;;5.37;4.23;;;;;;;20.68;48.12;101243.44;665970;29;1194;-85
2022/07/19 00:22:59;;;;;;;5.68;4.10;;;;;;;20.72;48.02;101254.91;664118;29;1448;-86
2022/07/19 00:23:20;;;;;;;6.00;4.30;;;;;;;20.73;48.25;101250.50;668466;29;2007;-86
2022/07/19 00:23:40;;;;;;;5.50;4.20;;;;;;;20.70;47.99;101248.75;668756;29;1287;-86
2022/07/19 00:24:04;;;;;;;5.45;4.43;;;;;;;20.71;48.34;101253.16;669459;29;1813;-85
2022/07/19 00:24:25;;;;;;;7.15;4.50;;;;;;;20.71;48.51;101255.81;669798;29;1450;-85
2022/07/19 00:25:08;;;;;;;7.40;4.60;;;;;;;20.75;48.28;101262.88;666636;29;1237;-86
2022/07/19 00:25:29;;;;;;;6.75;4.22;;;;;;;20.69;48.12;101252.25;667512;29;1781;-86
2022/07/19 00:25:49;;;;;;;6.70;4.40;;;;;;;20.67;48.40;101249.59;666285;29;1636;-86
2022/07/19 00:26:10;;;;;;;7.05;4.68;;;;;;;20.70;48.34;101262.00;664555;29;1664;-86
2022/07/19 00:26:31;;;;;;;8.05;4.97;;;;;;;20.71;48.39;101258.47;668415;29;1256;-86
2022/07/19 00:26:51;;;;;;;8.47;5.20;;;;;;;20.65;48.45;101253.19;668499;29;1399;-85
2022/07/19 00:27:12;;;;;;;6.70;4.82;;;;;;;20.68;48.47;101261.13;665973;29;1676;-85
2022/07/19 00:27:33;;;;;;;5.30;4.47;;;;;;;20.62;48.53;101247.88;665335;29;1188;-85
2022/07/19 00:27:54;;;;;;;7.22;4.28;;;;;;;20.62;48.54;101263.78;664168;29;1288;-85
2022/07/19 00:28:15;;;;;;;10.50;4.40;;;;;;;20.55;48.58;101242.63;663485;29;1710;-86
2022/07/19 00:28:35;;;;;;;10.90;4.60;;;;;;;20.65;48.51;101258.50;666639;29;1237;-85
2022/07/19 00:28:57;;;;;;;8.27;4.55;;;;;;;20.61;48.66;101262.03;669244;29;1200;-85
2022/07/19 00:29:18;;;;;;;6.03;4.47;;;;;;;20.53;48.66;101238.25;663092;29;1723;-86
2022/07/19 00:29:39;;;;;;;7.88;4.53;;;;;;;20.62;48.59;101255.84;668308;29;1574;-86
2022/07/19 00:30:00;;;;;;;8.18;4.63;;;;;;;20.55;48.55;101253.22;664940;29;1685;-85
2022/07/19 00:30:20;;;;;;;9.53;4.83;;;;;;;20.60;48.71;101260.28;668825;29;1190;-86
2022/07/19 00:30:41;;;;;;;8.27;4.88;;;;;;;20.54;48.70;101248.81;664132;29;1359;-86
2022/07/19 00:31:04;;;;;;;9.00;4.75;;;;;;;20.58;48.68;101257.63;661403;29;1695;-85
2022/07/19 00:31:25;;;;;;;6.85;4.50;;;;;;;20.51;48.80;101243.53;668950;29;1562;-86
2022/07/19 00:31:46;;;;;;;5.35;4.43;;;;;;;20.48;48.70;101246.19;666919;29;1432;-85
2022/07/19 00:32:07;;;;;;;5.43;4.33;;;;;;;20.55;48.81;101260.31;670700;29;1666;-85
2022/07/19 00:32:27;;;;;;;8.20;4.22;;;;;;;20.51;48.88;101250.59;668623;29;1645;-85
2022/07/19 00:32:48;;;;;;;7.70;4.20;;;;;;;20.49;48.81;101245.34;664122;29;1357;-86
2022/07/19 00:33:09;;;;;;;9.00;4.30;;;;;;;20.53;48.78;101252.34;663729;29;1686;-85
2022/07/19 00:33:30;;;;;;;6.85;4.40;;;;;;;20.55;48.83;101260.31;666520;29;1734;-86
2022/07/19 00:33:51;;;;;;;10.27;4.85;;;;;;;20.53;48.58;101257.66;663465;29;1218;-86
2022/07/19 00:34:12;;;;;;;10.75;4.90;;;;;;;20.53;48.98;101251.50;671957;29;1680;-85
2022/07/19 00:34:33;;;;;;;9.27;4.85;;;;;;;20.47;48.71;101247.09;666686;29;1717;-85
2022/07/19 00:34:53;;;;;;;6.50;4.30;;;;;;;20.54;48.76;101259.41;666597;29;1168;-86
2022/07/19 00:35:14;;;;;;;5.50;4.40;;;;;;;20.58;48.74;101262.06;665121;29;1673;-86
2022/07/19 00:35:36;;;;;;;6.15;4.70;;;;;;;20.53;48.94;101252.34;669194;29;1310;-86
2022/07/19 00:35:57;;;;;;;7.15;5.07;;;;;;;20.54;48.81;101256.75;664124;29;1497;-85
2022/07/19 00:36:18;;;;;;;6.53;4.90;;;;;;;20.57;48.76;101255.00;668233;29;1694;-85
2022/07/19 00:36:39;;;;;;;6.10;4.45;;;;;;;20.51;48.88;101254.16;667160;29;1378;-86
2022/07/19 00:37:00;;;;;;;4.80;4.00;;;;;;;20.54;48.71;101256.75;668908;29;1354;-86
2022/07/19 00:37:21;;;;;;;5.82;4.10;;;;;;;20.52;48.92;101250.59;666046;29;1443;-86
2022/07/19 00:37:42;;;;;;;5.95;4.00;;;;;;;20.60;48.85;101262.94;667131;29;1558;-86
2022/07/19 00:38:10;;;;;;;6.60;4.03;;;;;;;20.54;49.09;101247.94;666258;29;1608;-86
2022/07/19 00:38:31;;;;;;;6.07;4.13;;;;;;;20.57;49.14;101255.88;663853;29;1730;-86
2022/07/19 00:38:52;;;;;;;5.53;4.40;;;;;;;20.53;48.96;101249.69;668511;29;1328;-86
2022/07/19 00:39:13;;;;;;;5.50;4.47;;;;;;;20.58;49.14;101260.28;667614;29;1683;-86
2022/07/19 00:39:33;;;;;;;5.95;4.60;;;;;;;20.58;49.20;101252.31;668730;29;2032;-86
2022/07/19 00:39:54;;;;;;;7.97;4.90;;;;;;;20.54;49.14;101254.13;668885;29;1232;-86
2022/07/19 00:40:21;;;;;;;9.35;4.93;;;;;;;20.55;49.09;101247.06;666024;29;1748;-86
2022/07/19 00:40:42;;;;;;;17.52;4.90;;;;;;;20.57;49.05;101255.88;669989;29;1265;-86
2022/07/19 00:41:03;;;;;;;15.50;4.60;;;;;;;20.57;49.03;101260.31;663543;29;1678;-86
2022/07/19 00:41:24;;;;;;;5.20;4.30;;;;;;;20.57;48.76;101261.16;663512;29;1875;-86
2022/07/19 00:41:45;;;;;;;5.85;4.45;;;;;;;20.55;48.83;101252.34;676740;29;1163;-86
2022/07/19 00:42:07;;;;;;;5.63;4.38;;;;;;;20.48;48.92;101243.53;665926;29;1719;-86
2022/07/19 00:42:27;;;;;;;6.43;4.30;;;;;;;20.54;49.06;101255.91;668039;29;1597;-86
2022/07/19 00:42:50;;;;;;;5.67;4.00;;;;;;;20.55;48.91;101253.22;670798;29;1211;-86
2022/07/19 00:43:12;;;;;;;6.10;4.30;;;;;;;20.61;49.09;101252.31;667403;29;1726;-86
2022/07/19 00:43:32;;;;;;;5.10;4.50;;;;;;;20.59;48.97;101258.53;669344;29;1882;-86
2022/07/19 00:43:53;;;;;;;5.57;4.60;;;;;;;20.65;48.80;101258.50;664081;29;1195;-86
2022/07/19 00:44:14;;;;;;;6.35;4.32;;;;;;;20.63;48.84;101244.34;663182;29;1733;-86
2022/07/19 00:44:38;;;;;;;5.95;4.20;;;;;;;20.62;49.03;101245.22;666727;29;1316;-86
2022/07/19 00:44:59;;;;;;;5.78;3.80;;;;;;;20.66;48.92;101257.59;666721;29;1186;-85
2022/07/19 00:45:19;;;;;;;5.43;3.90;;;;;;;20.70;49.03;101256.69;665450;29;1923;-86
2022/07/19 00:45:40;;;;;;;6.53;4.10;;;;;;;20.65;48.94;101245.22;666760;29;1127;-86
2022/07/19 00:46:01;;;;;;;6.87;4.40;;;;;;;20.64;48.86;101240.78;667809;29;1652;-86
2022/07/19 00:46:22;;;;;;;7.75;4.70;;;;;;;20.71;48.85;101257.59;668601;29;1626;-86
2022/07/19 00:46:45;;;;;;;7.15;4.35;;;;;;;20.68;48.64;101250.50;667944;29;1317;-86
2022/07/19 00:47:06;;;;;;;8.15;4.25;;;;;;;20.65;48.59;101243.44;663547;29;1685;-86
2022/07/19 00:47:27;;;;;;;7.10;3.90;;;;;;;20.68;48.73;101247.84;670031;29;1681;-86
2022/07/19 00:47:48;;;;;;;7.47;3.90;;;;;;;20.71;48.62;101252.28;667167;29;1347;-86
2022/07/19 00:48:08;;;;;;;6.60;4.13;;;;;;;20.70;48.55;101251.41;673685;29;1839;-86
2022/07/19 00:48:29;;;;;;;7.15;4.25;;;;;;;20.62;48.58;101243.47;669451;29;1778;-86
2022/07/19 00:48:50;;;;;;;5.93;4.25;;;;;;;20.59;48.80;101243.47;670896;29;1195;-86
2022/07/19 00:49:11;;;;;;;5.87;4.30;;;;;;;20.63;48.48;101249.66;666332;29;1729;-86
2022/07/19 00:49:31;;;;;;;5.43;4.40;;;;;;;20.61;48.70;101251.44;663540;29;1785;-86
2022/07/19 00:49:52;;;;;;;6.28;4.32;;;;;;;20.57;48.71;101247.06;666184;29;1347;-86
2022/07/19 00:50:13;;;;;;;5.77;4.20;;;;;;;20.53;48.70;101255.00;664905;29;1879;-86
2022/07/19 00:50:34;;;;;;;6.27;4.60;;;;;;;20.51;48.74;101245.28;666777;29;1260;-87
2022/07/19 00:50:54;;;;;;;5.85;4.68;;;;;;;20.50;48.91;101254.16;664182;29;1320;-86
2022/07/19 00:51:17;;;;;;;6.05;4.68;;;;;;;20.41;48.64;101240.06;665078;29;1715;-87
2022/07/19 00:51:41;;;;;;;5.15;4.20;;;;;;;20.45;48.88;101251.53;668929;29;1382;-87
2022/07/19 00:52:04;;;;;;;5.45;4.50;;;;;;;20.42;48.77;101246.25;664180;29;1633;-86
2022/07/19 00:52:27;;;;;;;6.82;4.50;;;;;;;20.37;48.77;101248.03;666259;29;1769;-87
2022/07/19 00:52:54;;;;;;;8.00;4.60;;;;;;;20.37;48.89;101253.34;663924;29;1262;-86
2022/07/19 00:53:15;;;;;;;7.70;4.40;;;;;;;20.40;48.85;101258.59;668308;29;1745;-87
2022/07/19 00:53:40;;;;;;;6.97;4.07;;;;;;;20.32;48.92;101241.88;669005;29;1217;-86
2022/07/19 00:54:02;;;;;;;6.10;3.70;;;;;;;20.28;48.98;101239.25;664101;29;1315;-86
2022/07/19 00:54:26;;;;;;;6.00;4.00;;;;;;;20.35;49.00;101252.47;666170;29;1650;-86
2022/07/19 00:54:48;;;;;;;6.85;4.40;;;;;;;20.35;49.18;101257.78;664175;29;1285;-86
2022/07/19 00:55:10;;;;;;;7.20;4.22;;;;;;;20.33;49.05;101256.88;665956;29;1668;-86
2022/07/19 00:55:32;;;;;;;6.63;4.50;;;;;;;20.28;49.20;101246.31;668801;29;1748;-86
2022/07/19 00:55:54;;;;;;;5.35;4.30;;;;;;;20.24;49.13;101248.09;668471;29;1376;-86
2022/07/19 00:56:16;;;;;;;9.98;4.40;;;;;;;20.27;49.24;101252.50;668437;29;1716;-87
2022/07/19 00:56:38;;;;;;;10.48;4.40;;;;;;;20.18;49.50;101237.53;667452;29;1244;-87
2022/07/19 00:57:00;;;;;;;9.02;4.28;;;;;;;20.26;49.30;101251.63;663963;29;1629;-87
2022/07/19 00:57:23;;;;;;;6.30;4.10;;;;;;;20.23;49.38;101250.75;665794;29;1683;-87
2022/07/19 00:57:45;;;;;;;6.35;4.00;;;;;;;20.24;49.32;101245.44;664514;29;1283;-86
2022/07/19 00:58:06;;;;;;;6.60;3.90;;;;;;;20.21;49.38;101241.91;659272;29;1779;-86
2022/07/19 00:58:27;;;;;;;9.15;4.10;;;;;;;20.22;49.28;101249.00;661664;29;1596;-87
2022/07/19 00:58:49;;;;;;;10.05;4.30;;;;;;;20.22;49.40;101252.53;664994;29;1138;-87
2022/07/19 00:59:11;;;;;;;12.20;4.50;;;;;;;20.21;49.45;101249.88;664665;29;1872;-86
2022/07/19 00:59:32;;;;;;;9.50;4.40;;;;;;;20.15;49.15;101237.53;663610;29;1917;-87
2022/07/19 00:59:54;;;;;;;8.45;4.20;;;;;;;20.20;49.37;101254.31;661442;29;1501;-87
2022/07/19 01:00:17;;;;;;;7.25;4.10;;;;;;;20.23;49.50;101250.75;665804;29;1831;-87
2022/07/19 01:00:38;;;;;;;7.07;4.00;;;;;;;20.20;49.35;101250.75;668523;29;1517;-87
2022/07/19 01:01:00;;;;;;;13.05;4.40;;;;;;;20.12;49.45;101242.84;664115;29;1620;-86
2022/07/19 01:01:23;;;;;;;13.30;4.70;;;;;;;20.14;49.46;101249.03;663399;29;1529;-87
2022/07/19 01:01:44;;;;;;;11.73;4.65;;;;;;;20.13;49.49;101244.63;674019;29;1317;-86
2022/07/19 01:02:05;;;;;;;8.10;4.50;;;;;;;20.17;49.41;101256.97;669794;29;1889;-87
2022/07/19 01:02:29;;;;;;;7.05;4.40;;;;;;;20.12;49.62;101248.16;666383;29;1622;-86
2022/07/19 01:02:53;;;;;;;6.97;4.18;;;;;;;20.13;49.55;101245.50;664094;29;1187;-86
2022/07/19 01:03:14;;;;;;;12.15;4.40;;;;;;;20.09;49.43;101246.41;663966;29;1619;-86
2022/07/19 01:03:37;;;;;;;13.48;4.60;;;;;;;20.13;49.45;101255.22;663977;29;1719;-86
2022/07/19 01:03:58;;;;;;;8.98;4.43;;;;;;;20.12;49.47;101249.03;666534;29;1709;-87
2022/07/19 01:04:20;;;;;;;7.43;4.10;;;;;;;20.11;49.28;101251.69;670563;29;1900;-87
2022/07/19 01:04:40;;;;;;;5.57;4.15;;;;;;;20.06;49.24;101242.88;663899;29;1270;-86
2022/07/19 01:05:08;;;;;;;6.43;4.20;;;;;;;20.11;49.39;101254.34;664234;29;1819;-86
2022/07/19 01:05:29;;;;;;;5.80;4.00;;;;;;;20.11;49.46;101257.00;667507;29;1606;-87
2022/07/19 01:05:52;;;;;;;6.95;4.00;;;;;;;20.06;49.47;101249.06;661436;29;1199;-86
2022/07/19 01:06:13;;;;;;;6.87;4.00;;;;;;;20.10;49.61;101255.25;665382;29;1680;-87
2022/07/19 01:06:34;;;;;;;8.43;4.30;;;;;;;20.11;49.70;101259.66;667934;29;1781;-87
2022/07/19 01:06:55;;;;;;;6.30;4.20;;;;;;;20.04;49.70;101245.53;663750;29;1455;-87
2022/07/19 01:07:15;;;;;;;5.80;4.30;;;;;;;20.05;49.74;101251.72;662279;29;1744;-87
2022/07/19 01:07:38;;;;;;;4.97;4.20;;;;;;;20.03;49.52;101241.13;665931;29;1249;-87
2022/07/19 01:08:00;;;;;;;5.90;4.40;;;;;;;20.00;49.51;101235.84;665361;29;1323;-87
2022/07/19 01:08:20;;;;;;;6.38;4.50;;;;;;;20.05;49.62;101257.00;665598;29;1798;-87
2022/07/19 01:08:41;;;;;;;5.90;4.50;;;;;;;20.00;49.53;101249.94;669056;29;1218;-87
2022/07/19 01:09:03;;;;;;;9.05;4.65;;;;;;;20.01;49.44;101245.53;666409;29;1367;-86
2022/07/19 01:09:23;;;;;;;8.25;4.40;;;;;;;20.00;49.64;101249.94;669108;29;1636;-87
2022/07/19 01:09:44;;;;;;;8.80;4.47;;;;;;;19.95;49.63;101240.25;666097;29;1157;-87
2022/07/19 01:10:07;;;;;;;6.15;4.13;;;;;;;20.05;49.76;101252.63;663499;29;1758;-87
2022/07/19 01:10:28;;;;;;;6.57;4.28;;;;;;;20.01;49.56;101250.84;663035;29;1674;-87
2022/07/19 01:10:49;;;;;;;6.65;4.10;;;;;;;19.98;49.79;101246.44;670029;29;1186;-86
2022/07/19 01:11:10;;;;;;;5.30;4.10;;;;;;;19.98;49.65;101248.22;664623;29;1690;-87
2022/07/19 01:11:31;;;;;;;6.55;4.10;;;;;;;19.94;49.63;101243.81;668028;29;1775;-87
2022/07/19 01:11:52;;;;;;;7.03;4.22;;;;;;;19.99;49.59;101250.84;667076;29;1133;-87
2022/07/19 01:12:13;;;;;;;7.63;4.47;;;;;;;19.97;49.73;101247.31;664717;29;1682;-86
2022/07/19 01:12:35;;;;;;;6.10;4.18;;;;;;;19.94;49.77;101242.06;670297;29;1476;-86
2022/07/19 01:12:56;;;;;;;7.13;4.30;;;;;;;19.93;49.76;101236.75;667717;29;1390;-87
2022/07/19 01:13:16;;;;;;;8.40;4.20;;;;;;;19.97;49.91;101247.31;666376;29;1710;-87
2022/07/19 01:13:37;;;;;;;7.47;4.15;;;;;;;19.98;49.81;101250.88;669129;29;1086;-86
2022/07/19 01:13:58;;;;;;;5.30;4.03;;;;;;;19.95;50.00;101242.91;666470;29;1197;-86
2022/07/19 01:14:19;;;;;;;5.20;4.20;;;;;;;20.00;49.79;101262.34;667376;29;1817;-87
2022/07/19 01:14:39;;;;;;;6.13;4.20;;;;;;;19.94;49.87;101247.34;666923;29;1148;-87
2022/07/19 01:15:01;;;;;;;6.82;4.20;;;;;;;19.89;49.83;101235.88;661650;29;1150;-86
2022/07/19 01:15:26;;;;;;;6.60;4.20;;;;;;;19.91;49.91;101243.84;663328;29;1696;-87
2022/07/19 01:15:47;;;;;;;7.50;4.20;;;;;;;19.86;49.90;101241.16;667968;29;1138;-86
2022/07/19 01:16:08;;;;;;;8.20;4.27;;;;;;;19.86;50.19;101235.88;669221;29;1868;-86
2022/07/19 01:16:28;;;;;;;7.97;4.00;;;;;;;19.85;50.00;101242.03;668422;29;1493;-86
2022/07/19 01:16:49;;;;;;;10.88;4.13;;;;;;;19.93;50.04;101256.19;669813;29;1278;-87
2022/07/19 01:17:10;;;;;;;9.50;4.30;;;;;;;19.93;50.08;101258.84;669244;29;1720;-86
2022/07/19 01:17:31;;;;;;;8.77;4.03;;;;;;;19.86;50.04;101241.16;665915;29;1622;-86
2022/07/19 01:17:52;;;;;;;5.18;3.90;;;;;;;19.83;49.95;101242.06;665888;29;1178;-87
2022/07/19 01:18:13;;;;;;;7.22;3.90;;;;;;;19.90;50.21;101252.66;667165;29;1687;-86
2022/07/19 01:18:33;;;;;;;7.47;3.90;;;;;;;19.85;50.14;101244.66;669930;29;1577;-87
2022/07/19 01:18:54;;;;;;;8.77;3.90;;;;;;;19.85;50.13;101250.88;671087;29;1465;-87
2022/07/19 01:19:15;;;;;;;7.95;4.50;;;;;;;19.84;50.01;101246.47;670889;29;1753;-87
2022/07/19 01:19:36;;;;;;;7.72;4.82;;;;;;;19.76;50.03;101235.00;665596;29;1921;-86
2022/07/19 01:19:57;;;;;;;6.60;4.82;;;;;;;19.84;50.22;101248.22;666635;29;1569;-86
2022/07/19 01:20:21;;;;;;;5.68;4.45;;;;;;;19.83;50.20;101249.09;667800;29;1767;-87
2022/07/19 01:20:42;;;;;;;7.72;4.60;;;;;;;19.77;50.23;101233.22;673449;29;1306;-86
2022/07/19 01:21:04;;;;;;;7.82;4.40;;;;;;;19.84;50.33;101253.50;664104;29;1240;-86
2022/07/19 01:21:26;;;;;;;10.23;4.43;;;;;;;19.80;50.29;101241.19;665086;29;1626;-86
2022/07/19 01:21:46;;;;;;;9.05;4.30;;;;;;;19.86;50.25;101257.91;664042;29;1219;-86
2022/07/19 01:22:07;;;;;;;8.50;4.40;;;;;;;19.80;50.23;101246.47;663438;29;1794;-85
2022/07/19 01:22:28;;;;;;;7.05;4.25;;;;;;;19.81;50.34;101246.47;664473;29;1515;-86
2022/07/19 01:22:50;;;;;;;6.82;4.22;;;;;;;19.83;50.38;101251.75;665721;29;1816;-87
2022/07/19 01:23:11;;;;;;;6.45;4.00;;;;;;;19.79;50.47;101244.72;666228;29;1817;-86
2022/07/19 01:23:31;;;;;;;7.15;4.10;;;;;;;19.79;50.44;101247.38;666467;29;1842;-87
2022/07/19 01:23:53;;;;;;;8.63;4.33;;;;;;;19.73;50.29;101246.50;667916;29;1167;-87
2022/07/19 01:24:13;;;;;;;7.65;4.47;;;;;;;19.80;50.36;101255.28;663408;29;1765;-87
2022/07/19 01:24:34;;;;;;;6.00;4.20;;;;;;;19.78;50.18;101250.91;666451;29;1841;-86
2022/07/19 01:24:55;;;;;;;4.65;4.15;;;;;;;19.77;50.34;101246.47;668858;29;1282;-87
2022/07/19 01:25:17;;;;;;;4.57;4.03;;;;;;;19.75;50.32;101251.78;665841;29;1693;-87
2022/07/19 01:25:38;;;;;;;4.55;3.92;;;;;;;19.76;50.30;101250.00;671942;29;1236;-86
2022/07/19 01:25:59;;;;;;;5.50;3.90;;;;;;;19.76;50.27;101250.00;664570;29;1279;-87
2022/07/19 01:26:20;;;;;;;5.35;3.95;;;;;;;19.75;50.44;101245.59;665245;29;1881;-87
2022/07/19 01:26:41;;;;;;;6.67;4.50;;;;;;;19.70;50.42;101243.88;667225;29;1245;-86
2022/07/19 01:27:02;;;;;;;5.90;4.55;;;;;;;19.72;50.76;101250.03;663962;29;1578;-87
2022/07/19 01:27:22;;;;;;;5.90;4.47;;;;;;;19.72;50.97;101255.31;665253;29;1855;-86
2022/07/19 01:27:50;;;;;;;5.17;4.17;;;;;;;19.71;50.72;101250.91;663808;29;1657;-87
2022/07/19 01:28:11;;;;;;;10.50;4.50;;;;;;;19.67;50.66;101243.00;665853;29;1656;-86
2022/07/19 01:28:31;;;;;;;11.35;4.60;;;;;;;19.72;50.73;101255.31;672131;29;1727;-87
2022/07/19 01:28:52;;;;;;;11.55;4.28;;;;;;;19.65;50.82;101242.09;663972;29;1212;-86
2022/07/19 01:29:17;;;;;;;7.90;4.20;;;;;;;19.65;50.68;101248.28;665795;29;1721;-87
2022/07/19 01:29:38;;;;;;;8.45;4.30;;;;;;;19.65;50.78;101248.28;666156;29;1233;-87
2022/07/19 01:29:58;;;;;;;7.95;4.20;;;;;;;19.64;50.90;101243.88;668940;29;1197;-86
2022/07/19 01:30:21;;;;;;;7.60;4.00;;;;;;;19.65;50.78;101252.69;665478;29;1909;-86
2022/07/19 01:30:42;;;;;;;7.30;4.10;;;;;;;19.64;50.91;101245.63;672869;29;1254;-87
2022/07/19 01:31:03;;;;;;;6.60;4.10;;;;;;;19.58;50.89;101241.22;669096;29;1525;-86
2022/07/19 01:31:24;;;;;;;5.20;3.92;;;;;;;19.61;50.72;101246.50;670459;29;1488;-86
2022/07/19 01:31:44;;;;;;;5.95;4.30;;;;;;;19.60;50.78;101244.75;670498;29;1109;-86
2022/07/19 01:32:06;;;;;;;5.95;4.68;;;;;;;19.58;50.97;101244.78;664358;29;1748;-86
2022/07/19 01:32:26;;;;;;;7.15;5.20;;;;;;;19.68;50.98;101260.63;668543;29;1558;-87
2022/07/19 01:32:48;;;;;;;9.27;5.47;;;;;;;19.57;51.02;101239.47;662714;29;1181;-86
2022/07/19 01:33:09;;;;;;;9.40;5.28;;;;;;;19.68;51.04;101263.28;665997;29;1733;-86
2022/07/19 01:33:29;;;;;;;7.55;4.68;;;;;;;19.69;50.84;101260.63;671455;29;1704;-86
2022/07/19 01:33:50;;;;;;;5.78;4.43;;;;;;;19.62;50.76;101243.00;665988;29;1203;-87
2022/07/19 01:34:11;;;;;;;5.00;4.30;;;;;;;19.64;51.08;101251.81;659015;29;1691;-87
2022/07/19 01:34:32;;;;;;;6.10;4.30;;;;;;;19.63;50.82;101249.16;667102;29;1497;-86
2022/07/19 01:34:53;;;;;;;6.10;4.07;;;;;;;19.63;50.64;101243.88;663130;29;1448;-86
2022/07/19 01:35:14;;;;;;;5.80;4.17;;;;;;;19.64;50.65;101251.81;664141;29;1722;-87
2022/07/19 01:35:35;;;;;;;5.13;4.30;;;;;;;19.66;50.75;101250.03;666457;29;1923;-86
2022/07/19 01:35:55;;;;;;;6.38;4.63;;;;;;;19.61;50.92;101251.78;668885;29;1189;-87
2022/07/19 01:36:16;;;;;;;6.57;4.60;;;;;;;19.59;50.68;101243.88;665153;29;1662;-86
2022/07/19 01:36:39;;;;;;;8.30;4.63;;;;;;;19.60;50.76;101250.03;663917;29;1609;-85
2022/07/19 01:37:00;;;;;;;7.70;4.25;;;;;;;19.64;50.64;101267.69;666553;29;1475;-87
2022/07/19 01:37:21;;;;;;;7.07;4.17;;;;;;;19.58;50.69;101252.72;668264;29;1684;-86
2022/07/19 01:37:42;;;;;;;6.43;4.05;;;;;;;19.59;50.80;101258.88;669720;29;1597;-86
2022/07/19 01:38:03;;;;;;;7.05;4.20;;;;;;;19.56;50.95;101253.59;671761;29;1195;-86
2022/07/19 01:38:24;;;;;;;8.60;4.13;;;;;;;19.56;51.00;101253.59;666231;29;1672;-86
2022/07/19 01:38:45;;;;;;;7.60;4.27;;;;;;;19.55;51.20;101251.84;670924;29;1137;-87
2022/07/19 01:39:05;;;;;;;6.63;4.10;;;;;;;19.54;51.07;101250.06;669138;29;1203;-87
2022/07/19 01:39:26;;;;;;;5.68;4.60;;;;;;;19.52;51.04;101252.72;663748;29;1933;-86
2022/07/19 01:39:46;;;;;;;5.50;4.37;;;;;;;19.54;51.03;101255.38;666183;29;1151;-87
2022/07/19 01:40:11;;;;;;;6.47;4.80;;;;;;;19.57;51.10;101271.22;661595;29;1346;-87
2022/07/19 01:40:33;;;;;;;5.32;4.50;;;;;;;19.56;51.17;101265.03;665656;29;1220;-86
2022/07/19 01:40:53;;;;;;;7.18;4.70;;;;;;;19.49;51.25;101251.84;671181;29;1314;-87
2022/07/19 01:41:14;;;;;;;6.63;4.57;;;;;;;19.51;51.29;101255.34;669821;29;1204;-86
2022/07/19 01:41:35;;;;;;;7.80;4.60;;;;;;;19.50;51.45;101261.53;669116;29;1199;-87
2022/07/19 01:41:55;;;;;;;6.20;4.60;;;;;;;19.50;51.34;101253.59;668912;29;1309;-86
2022/07/19 01:42:16;;;;;;;6.93;4.72;;;;;;;19.47;51.39;101250.97;670578;29;1650;-86